sensor_id;sensor_type;location;lat;lon;timestamp;P1;durP1;ratioP1;P2;durP2;ratioP2
75435;SDS011;64014;53.432;14.534;2023-04-24T00:00:59;17.65;;;7.70;;
75435;SDS011;64014;53.432;14.534;2023-04-24T00:03:26;18.17;;;9.05;;
75435;SDS011;64014;53.432;14.534;2023-04-24T00:05:53;18.05;;;9.65;;
75435;SDS011;64014;53.432;14.534;2023-04-24T00:08:19;17.75;;;7.53;;
75435;SDS011;64014;53.432;14.534;2023-04-24T00:10:47;15.88;;;9.50;;
75435;SDS011;64014;53.432;14.534;2023-04-24T00:13:13;15.25;;;9.77;;
75435;SDS011;64014;53.432;14.534;2023-04-24T00:15:39;16.20;;;9.95;;
75435;SDS011;64014;53.432;14.534;2023-04-24T00:18:06;15.82;;;9.48;;
75435;SDS011;64014;53.432;14.534;2023-04-24T00:20:32;14.45;;;8.02;;
75435;SDS011;64014;53.432;14.534;2023-04-24T00:22:58;19.13;;;9.15;;
75435;SDS011;64014;53.432;14.534;2023-04-24T00:25:24;18.92;;;10.40;;
75435;SDS011;64014;53.432;14.534;2023-04-24T00:27:50;14.45;;;9.35;;
75435;SDS011;64014;53.432;14.534;2023-04-24T00:30:17;15.88;;;9.07;;
75435;SDS011;64014;53.432;14.534;2023-04-24T00:32:43;14.23;;;10.25;;
75435;SDS011;64014;53.432;14.534;2023-04-24T00:35:09;17.58;;;9.73;;
75435;SDS011;64014;53.432;14.534;2023-04-24T00:37:35;15.30;;;9.90;;
75435;SDS011;64014;53.432;14.534;2023-04-24T00:40:01;17.35;;;9.68;;
75435;SDS011;64014;53.432;14.534;2023-04-24T00:42:28;15.38;;;9.55;;
75435;SDS011;64014;53.432;14.534;2023-04-24T00:44:55;15.68;;;9.77;;
75435;SDS011;64014;53.432;14.534;2023-04-24T00:47:22;15.05;;;9.95;;
75435;SDS011;64014;53.432;14.534;2023-04-24T00:49:48;14.05;;;9.32;;
75435;SDS011;64014;53.432;14.534;2023-04-24T00:52:14;15.30;;;9.35;;
75435;SDS011;64014;53.432;14.534;2023-04-24T00:54:43;17.20;;;9.90;;
75435;SDS011;64014;53.432;14.534;2023-04-24T00:57:10;18.65;;;10.60;;
75435;SDS011;64014;53.432;14.534;2023-04-24T00:59:36;17.50;;;10.15;;
75435;SDS011;64014;53.432;14.534;2023-04-24T01:02:02;17.17;;;10.80;;
75435;SDS011;64014;53.432;14.534;2023-04-24T01:04:29;16.60;;;10.38;;
75435;SDS011;64014;53.432;14.534;2023-04-24T01:06:55;15.38;;;10.20;;
75435;SDS011;64014;53.432;14.534;2023-04-24T01:09:25;15.30;;;10.95;;
75435;SDS011;64014;53.432;14.534;2023-04-24T01:11:52;14.98;;;9.77;;
75435;SDS011;64014;53.432;14.534;2023-04-24T01:14:18;17.17;;;11.02;;
75435;SDS011;64014;53.432;14.534;2023-04-24T01:16:44;18.10;;;11.27;;
75435;SDS011;64014;53.432;14.534;2023-04-24T01:19:11;20.73;;;12.43;;
75435;SDS011;64014;53.432;14.534;2023-04-24T01:21:37;19.13;;;11.25;;
75435;SDS011;64014;53.432;14.534;2023-04-24T01:24:04;19.35;;;12.68;;
75435;SDS011;64014;53.432;14.534;2023-04-24T01:26:31;17.75;;;13.00;;
75435;SDS011;64014;53.432;14.534;2023-04-24T01:28:57;20.60;;;12.63;;
75435;SDS011;64014;53.432;14.534;2023-04-24T01:31:23;17.35;;;10.90;;
75435;SDS011;64014;53.432;14.534;2023-04-24T01:33:50;17.55;;;12.38;;
75435;SDS011;64014;53.432;14.534;2023-04-24T01:36:16;16.55;;;9.75;;
75435;SDS011;64014;53.432;14.534;2023-04-24T01:38:43;17.58;;;11.90;;
75435;SDS011;64014;53.432;14.534;2023-04-24T01:41:10;19.27;;;11.48;;
75435;SDS011;64014;53.432;14.534;2023-04-24T01:43:36;16.27;;;11.23;;
75435;SDS011;64014;53.432;14.534;2023-04-24T01:46:02;19.15;;;11.60;;
75435;SDS011;64014;53.432;14.534;2023-04-24T01:48:28;16.98;;;11.68;;
75435;SDS011;64014;53.432;14.534;2023-04-24T01:50:56;18.90;;;10.57;;
75435;SDS011;64014;53.432;14.534;2023-04-24T01:53:22;20.83;;;12.32;;
75435;SDS011;64014;53.432;14.534;2023-04-24T01:55:48;19.75;;;12.50;;
75435;SDS011;64014;53.432;14.534;2023-04-24T01:58:14;21.38;;;12.93;;
75435;SDS011;64014;53.432;14.534;2023-04-24T02:00:40;19.77;;;12.32;;
75435;SDS011;64014;53.432;14.534;2023-04-24T02:03:07;20.85;;;11.90;;
75435;SDS011;64014;53.432;14.534;2023-04-24T02:05:33;19.80;;;13.25;;
75435;SDS011;64014;53.432;14.534;2023-04-24T02:07:59;19.67;;;13.80;;
75435;SDS011;64014;53.432;14.534;2023-04-24T02:10:25;18.63;;;12.77;;
75435;SDS011;64014;53.432;14.534;2023-04-24T02:12:51;20.52;;;14.73;;
75435;SDS011;64014;53.432;14.534;2023-04-24T02:15:17;21.27;;;14.45;;
75435;SDS011;64014;53.432;14.534;2023-04-24T02:17:43;20.80;;;13.88;;
75435;SDS011;64014;53.432;14.534;2023-04-24T02:20:10;20.85;;;13.45;;
75435;SDS011;64014;53.432;14.534;2023-04-24T02:22:36;18.65;;;12.95;;
75435;SDS011;64014;53.432;14.534;2023-04-24T02:25:02;17.92;;;12.60;;
75435;SDS011;64014;53.432;14.534;2023-04-24T02:27:28;20.15;;;13.15;;
75435;SDS011;64014;53.432;14.534;2023-04-24T02:29:55;17.85;;;12.38;;
75435;SDS011;64014;53.432;14.534;2023-04-24T02:32:21;20.15;;;13.18;;
75435;SDS011;64014;53.432;14.534;2023-04-24T02:34:47;19.58;;;12.52;;
75435;SDS011;64014;53.432;14.534;2023-04-24T02:37:13;18.67;;;11.77;;
75435;SDS011;64014;53.432;14.534;2023-04-24T02:39:39;18.50;;;12.20;;
75435;SDS011;64014;53.432;14.534;2023-04-24T02:42:05;20.50;;;12.95;;
75435;SDS011;64014;53.432;14.534;2023-04-24T02:44:33;16.95;;;10.15;;
75435;SDS011;64014;53.432;14.534;2023-04-24T02:46:59;22.05;;;14.40;;
75435;SDS011;64014;53.432;14.534;2023-04-24T02:49:25;20.55;;;13.35;;
75435;SDS011;64014;53.432;14.534;2023-04-24T02:51:52;17.02;;;11.07;;
75435;SDS011;64014;53.432;14.534;2023-04-24T02:54:18;20.67;;;12.00;;
75435;SDS011;64014;53.432;14.534;2023-04-24T02:56:44;19.75;;;12.60;;
75435;SDS011;64014;53.432;14.534;2023-04-24T02:59:10;20.38;;;13.52;;
75435;SDS011;64014;53.432;14.534;2023-04-24T03:01:36;18.40;;;12.50;;
75435;SDS011;64014;53.432;14.534;2023-04-24T03:04:02;21.05;;;13.38;;
75435;SDS011;64014;53.432;14.534;2023-04-24T03:06:29;20.83;;;14.20;;
75435;SDS011;64014;53.432;14.534;2023-04-24T03:08:56;19.80;;;12.75;;
75435;SDS011;64014;53.432;14.534;2023-04-24T03:11:22;21.30;;;14.38;;
75435;SDS011;64014;53.432;14.534;2023-04-24T03:13:48;21.15;;;13.95;;
75435;SDS011;64014;53.432;14.534;2023-04-24T03:16:14;19.60;;;12.85;;
75435;SDS011;64014;53.432;14.534;2023-04-24T03:18:40;19.23;;;11.77;;
75435;SDS011;64014;53.432;14.534;2023-04-24T03:21:07;22.02;;;12.82;;
75435;SDS011;64014;53.432;14.534;2023-04-24T03:23:33;21.50;;;13.30;;
75435;SDS011;64014;53.432;14.534;2023-04-24T03:25:59;25.50;;;14.27;;
75435;SDS011;64014;53.432;14.534;2023-04-24T03:28:25;24.67;;;14.23;;
75435;SDS011;64014;53.432;14.534;2023-04-24T03:30:51;19.08;;;12.63;;
75435;SDS011;64014;53.432;14.534;2023-04-24T03:33:17;21.63;;;13.75;;
75435;SDS011;64014;53.432;14.534;2023-04-24T03:35:44;17.13;;;11.82;;
75435;SDS011;64014;53.432;14.534;2023-04-24T03:38:10;14.48;;;10.90;;
75435;SDS011;64014;53.432;14.534;2023-04-24T03:40:36;16.95;;;11.27;;
75435;SDS011;64014;53.432;14.534;2023-04-24T03:43:02;14.15;;;10.70;;
75435;SDS011;64014;53.432;14.534;2023-04-24T03:45:28;17.17;;;12.73;;
75435;SDS011;64014;53.432;14.534;2023-04-24T03:47:54;15.90;;;12.57;;
75435;SDS011;64014;53.432;14.534;2023-04-24T03:50:21;15.82;;;12.20;;
75435;SDS011;64014;53.432;14.534;2023-04-24T03:52:47;18.30;;;13.38;;
75435;SDS011;64014;53.432;14.534;2023-04-24T03:55:13;15.27;;;11.30;;
75435;SDS011;64014;53.432;14.534;2023-04-24T03:57:42;18.92;;;13.60;;
75435;SDS011;64014;53.432;14.534;2023-04-24T04:00:08;17.55;;;12.80;;
75435;SDS011;64014;53.432;14.534;2023-04-24T04:02:35;18.33;;;12.05;;
75435;SDS011;64014;53.432;14.534;2023-04-24T04:05:01;17.90;;;12.63;;
75435;SDS011;64014;53.432;14.534;2023-04-24T04:07:27;17.55;;;11.63;;
75435;SDS011;64014;53.432;14.534;2023-04-24T04:09:54;17.13;;;12.00;;
75435;SDS011;64014;53.432;14.534;2023-04-24T04:12:21;15.13;;;10.30;;
75435;SDS011;64014;53.432;14.534;2023-04-24T04:14:47;15.95;;;10.68;;
75435;SDS011;64014;53.432;14.534;2023-04-24T04:17:13;14.85;;;11.13;;
75435;SDS011;64014;53.432;14.534;2023-04-24T04:19:39;16.25;;;11.52;;
75435;SDS011;64014;53.432;14.534;2023-04-24T04:22:05;15.73;;;11.57;;
75435;SDS011;64014;53.432;14.534;2023-04-24T04:24:33;17.50;;;13.20;;
75435;SDS011;64014;53.432;14.534;2023-04-24T04:27:03;17.70;;;12.07;;
75435;SDS011;64014;53.432;14.534;2023-04-24T04:29:30;19.98;;;14.70;;
75435;SDS011;64014;53.432;14.534;2023-04-24T04:31:56;17.08;;;11.35;;
75435;SDS011;64014;53.432;14.534;2023-04-24T04:34:23;17.85;;;12.38;;
75435;SDS011;64014;53.432;14.534;2023-04-24T04:36:49;17.65;;;12.77;;
75435;SDS011;64014;53.432;14.534;2023-04-24T04:39:15;18.55;;;12.88;;
75435;SDS011;64014;53.432;14.534;2023-04-24T04:41:43;18.45;;;13.23;;
75435;SDS011;64014;53.432;14.534;2023-04-24T04:44:11;26.02;;;14.07;;
75435;SDS011;64014;53.432;14.534;2023-04-24T04:46:39;17.20;;;12.50;;
75435;SDS011;64014;53.432;14.534;2023-04-24T04:49:06;16.80;;;12.77;;
75435;SDS011;64014;53.432;14.534;2023-04-24T04:51:33;16.73;;;12.55;;
75435;SDS011;64014;53.432;14.534;2023-04-24T04:54:00;17.33;;;11.93;;
75435;SDS011;64014;53.432;14.534;2023-04-24T04:56:26;17.50;;;12.10;;
75435;SDS011;64014;53.432;14.534;2023-04-24T04:58:52;16.27;;;11.70;;
75435;SDS011;64014;53.432;14.534;2023-04-24T05:01:18;14.55;;;11.02;;
75435;SDS011;64014;53.432;14.534;2023-04-24T05:03:45;16.33;;;11.65;;
75435;SDS011;64014;53.432;14.534;2023-04-24T05:06:11;15.32;;;11.77;;
75435;SDS011;64014;53.432;14.534;2023-04-24T05:08:37;14.30;;;10.75;;
75435;SDS011;64014;53.432;14.534;2023-04-24T05:11:03;15.25;;;10.40;;
75435;SDS011;64014;53.432;14.534;2023-04-24T05:13:29;14.23;;;11.55;;
75435;SDS011;64014;53.432;14.534;2023-04-24T05:15:56;15.65;;;11.73;;
75435;SDS011;64014;53.432;14.534;2023-04-24T05:18:23;14.70;;;10.73;;
75435;SDS011;64014;53.432;14.534;2023-04-24T05:20:49;16.73;;;12.10;;
75435;SDS011;64014;53.432;14.534;2023-04-24T05:23:15;17.40;;;11.95;;
75435;SDS011;64014;53.432;14.534;2023-04-24T05:25:41;16.00;;;12.25;;
75435;SDS011;64014;53.432;14.534;2023-04-24T05:28:07;16.40;;;12.93;;
75435;SDS011;64014;53.432;14.534;2023-04-24T05:30:34;16.52;;;13.23;;
75435;SDS011;64014;53.432;14.534;2023-04-24T05:33:00;16.15;;;11.52;;
75435;SDS011;64014;53.432;14.534;2023-04-24T05:35:26;18.10;;;13.25;;
75435;SDS011;64014;53.432;14.534;2023-04-24T05:37:52;16.10;;;12.65;;
75435;SDS011;64014;53.432;14.534;2023-04-24T05:40:18;16.92;;;12.77;;
75435;SDS011;64014;53.432;14.534;2023-04-24T05:42:45;17.73;;;13.20;;
75435;SDS011;64014;53.432;14.534;2023-04-24T05:45:11;15.02;;;13.40;;
75435;SDS011;64014;53.432;14.534;2023-04-24T05:47:41;17.90;;;15.38;;
75435;SDS011;64014;53.432;14.534;2023-04-24T05:50:08;18.20;;;14.07;;
75435;SDS011;64014;53.432;14.534;2023-04-24T05:52:35;16.70;;;13.63;;
75435;SDS011;64014;53.432;14.534;2023-04-24T05:55:01;17.65;;;12.60;;
75435;SDS011;64014;53.432;14.534;2023-04-24T05:57:27;18.70;;;14.30;;
75435;SDS011;64014;53.432;14.534;2023-04-24T05:59:53;18.77;;;14.32;;
75435;SDS011;64014;53.432;14.534;2023-04-24T06:02:20;18.30;;;16.05;;
75435;SDS011;64014;53.432;14.534;2023-04-24T06:04:46;17.80;;;13.43;;
75435;SDS011;64014;53.432;14.534;2023-04-24T06:07:13;14.63;;;11.63;;
75435;SDS011;64014;53.432;14.534;2023-04-24T06:09:39;17.13;;;11.75;;
75435;SDS011;64014;53.432;14.534;2023-04-24T06:12:05;17.27;;;10.57;;
75435;SDS011;64014;53.432;14.534;2023-04-24T06:14:33;15.40;;;12.32;;
75435;SDS011;64014;53.432;14.534;2023-04-24T06:16:59;14.88;;;11.63;;
75435;SDS011;64014;53.432;14.534;2023-04-24T06:19:25;19.95;;;13.88;;
75435;SDS011;64014;53.432;14.534;2023-04-24T06:21:51;14.88;;;12.60;;
75435;SDS011;64014;53.432;14.534;2023-04-24T06:24:18;14.38;;;10.52;;
75435;SDS011;64014;53.432;14.534;2023-04-24T06:26:44;13.57;;;9.18;;
75435;SDS011;64014;53.432;14.534;2023-04-24T06:29:10;13.50;;;10.68;;
75435;SDS011;64014;53.432;14.534;2023-04-24T06:31:36;15.18;;;11.75;;
75435;SDS011;64014;53.432;14.534;2023-04-24T06:34:03;12.05;;;9.93;;
75435;SDS011;64014;53.432;14.534;2023-04-24T06:36:29;16.30;;;9.60;;
75435;SDS011;64014;53.432;14.534;2023-04-24T06:38:56;12.48;;;10.40;;
75435;SDS011;64014;53.432;14.534;2023-04-24T06:41:22;12.77;;;10.85;;
75435;SDS011;64014;53.432;14.534;2023-04-24T06:43:48;11.73;;;9.57;;
75435;SDS011;64014;53.432;14.534;2023-04-24T06:46:14;11.73;;;7.80;;
75435;SDS011;64014;53.432;14.534;2023-04-24T06:48:40;10.88;;;7.28;;
75435;SDS011;64014;53.432;14.534;2023-04-24T06:51:07;11.45;;;9.70;;
75435;SDS011;64014;53.432;14.534;2023-04-24T06:53:34;11.48;;;9.15;;
75435;SDS011;64014;53.432;14.534;2023-04-24T06:56:00;11.05;;;9.50;;
75435;SDS011;64014;53.432;14.534;2023-04-24T06:58:26;10.77;;;7.85;;
75435;SDS011;64014;53.432;14.534;2023-04-24T07:00:52;13.80;;;9.43;;
75435;SDS011;64014;53.432;14.534;2023-04-24T07:03:18;13.52;;;9.00;;
75435;SDS011;64014;53.432;14.534;2023-04-24T07:05:45;14.65;;;10.32;;
75435;SDS011;64014;53.432;14.534;2023-04-24T07:08:11;12.75;;;9.45;;
75435;SDS011;64014;53.432;14.534;2023-04-24T07:10:37;9.52;;;7.35;;
75435;SDS011;64014;53.432;14.534;2023-04-24T07:13:03;10.20;;;7.05;;
75435;SDS011;64014;53.432;14.534;2023-04-24T07:15:31;11.90;;;8.32;;
75435;SDS011;64014;53.432;14.534;2023-04-24T07:17:58;11.43;;;8.20;;
75435;SDS011;64014;53.432;14.534;2023-04-24T07:20:24;12.52;;;8.57;;
75435;SDS011;64014;53.432;14.534;2023-04-24T07:22:51;11.18;;;7.57;;
75435;SDS011;64014;53.432;14.534;2023-04-24T07:25:18;11.80;;;8.05;;
75435;SDS011;64014;53.432;14.534;2023-04-24T07:27:45;13.15;;;9.98;;
75435;SDS011;64014;53.432;14.534;2023-04-24T07:30:11;10.60;;;9.50;;
75435;SDS011;64014;53.432;14.534;2023-04-24T07:32:37;10.50;;;7.47;;
75435;SDS011;64014;53.432;14.534;2023-04-24T07:35:03;12.25;;;10.45;;
75435;SDS011;64014;53.432;14.534;2023-04-24T07:37:30;12.35;;;9.57;;
75435;SDS011;64014;53.432;14.534;2023-04-24T07:39:56;9.40;;;7.25;;
75435;SDS011;64014;53.432;14.534;2023-04-24T07:42:22;9.32;;;7.05;;
75435;SDS011;64014;53.432;14.534;2023-04-24T07:44:49;10.05;;;6.93;;
75435;SDS011;64014;53.432;14.534;2023-04-24T07:47:16;11.30;;;9.43;;
75435;SDS011;64014;53.432;14.534;2023-04-24T07:49:42;9.70;;;8.70;;
75435;SDS011;64014;53.432;14.534;2023-04-24T07:52:08;9.95;;;8.15;;
75435;SDS011;64014;53.432;14.534;2023-04-24T07:54:34;7.97;;;6.05;;
75435;SDS011;64014;53.432;14.534;2023-04-24T07:57:02;9.88;;;8.70;;
75435;SDS011;64014;53.432;14.534;2023-04-24T07:59:29;9.10;;;6.20;;
75435;SDS011;64014;53.432;14.534;2023-04-24T08:01:55;8.55;;;5.85;;
75435;SDS011;64014;53.432;14.534;2023-04-24T08:04:21;9.45;;;6.28;;
75435;SDS011;64014;53.432;14.534;2023-04-24T08:06:47;8.60;;;6.60;;
75435;SDS011;64014;53.432;14.534;2023-04-24T08:09:14;8.93;;;6.20;;
75435;SDS011;64014;53.432;14.534;2023-04-24T08:11:40;9.75;;;6.20;;
75435;SDS011;64014;53.432;14.534;2023-04-24T08:14:06;8.82;;;6.05;;
75435;SDS011;64014;53.432;14.534;2023-04-24T08:16:32;7.57;;;5.13;;
75435;SDS011;64014;53.432;14.534;2023-04-24T08:18:59;8.10;;;5.25;;
75435;SDS011;64014;53.432;14.534;2023-04-24T08:21:25;8.35;;;7.38;;
75435;SDS011;64014;53.432;14.534;2023-04-24T08:23:52;7.70;;;4.80;;
75435;SDS011;64014;53.432;14.534;2023-04-24T08:26:18;7.85;;;4.95;;
75435;SDS011;64014;53.432;14.534;2023-04-24T08:28:44;7.80;;;7.07;;
75435;SDS011;64014;53.432;14.534;2023-04-24T08:31:10;7.28;;;4.93;;
75435;SDS011;64014;53.432;14.534;2023-04-24T08:33:36;7.78;;;4.60;;
75435;SDS011;64014;53.432;14.534;2023-04-24T08:36:03;7.00;;;4.22;;
75435;SDS011;64014;53.432;14.534;2023-04-24T08:38:30;7.93;;;4.72;;
75435;SDS011;64014;53.432;14.534;2023-04-24T08:40:57;7.53;;;5.95;;
75435;SDS011;64014;53.432;14.534;2023-04-24T08:43:24;7.53;;;6.80;;
75435;SDS011;64014;53.432;14.534;2023-04-24T08:45:51;7.43;;;4.97;;
75435;SDS011;64014;53.432;14.534;2023-04-24T08:48:18;7.63;;;5.93;;
75435;SDS011;64014;53.432;14.534;2023-04-24T08:50:44;7.78;;;4.15;;
75435;SDS011;64014;53.432;14.534;2023-04-24T08:53:10;7.80;;;4.43;;
75435;SDS011;64014;53.432;14.534;2023-04-24T08:55:37;5.38;;;4.03;;
75435;SDS011;64014;53.432;14.534;2023-04-24T08:58:03;6.80;;;4.22;;
75435;SDS011;64014;53.432;14.534;2023-04-24T09:00:30;6.15;;;4.38;;
75435;SDS011;64014;53.432;14.534;2023-04-24T09:02:56;6.75;;;4.32;;
75435;SDS011;64014;53.432;14.534;2023-04-24T09:05:23;5.18;;;4.10;;
75435;SDS011;64014;53.432;14.534;2023-04-24T09:07:49;5.40;;;4.00;;
75435;SDS011;64014;53.432;14.534;2023-04-24T09:10:19;5.88;;;3.10;;
75435;SDS011;64014;53.432;14.534;2023-04-24T09:12:46;5.57;;;2.70;;
75435;SDS011;64014;53.432;14.534;2023-04-24T09:15:12;5.18;;;2.70;;
75435;SDS011;64014;53.432;14.534;2023-04-24T09:17:38;6.03;;;3.33;;
75435;SDS011;64014;53.432;14.534;2023-04-24T09:20:05;5.78;;;3.53;;
75435;SDS011;64014;53.432;14.534;2023-04-24T09:22:31;6.47;;;4.25;;
75435;SDS011;64014;53.432;14.534;2023-04-24T09:25:05;6.82;;;3.70;;
75435;SDS011;64014;53.432;14.534;2023-04-24T09:27:32;5.80;;;3.80;;
75435;SDS011;64014;53.432;14.534;2023-04-24T09:29:58;5.03;;;3.83;;
75435;SDS011;64014;53.432;14.534;2023-04-24T09:32:25;8.35;;;4.45;;
75435;SDS011;64014;53.432;14.534;2023-04-24T09:35:05;7.80;;;4.10;;
75435;SDS011;64014;53.432;14.534;2023-04-24T09:37:36;6.22;;;3.00;;
75435;SDS011;64014;53.432;14.534;2023-04-24T09:40:13;5.45;;;3.03;;
75435;SDS011;64014;53.432;14.534;2023-04-24T09:42:40;5.45;;;3.05;;
75435;SDS011;64014;53.432;14.534;2023-04-24T09:45:09;5.63;;;4.28;;
75435;SDS011;64014;53.432;14.534;2023-04-24T09:47:39;3.88;;;2.50;;
75435;SDS011;64014;53.432;14.534;2023-04-24T09:50:09;4.78;;;2.22;;
75435;SDS011;64014;53.432;14.534;2023-04-24T09:52:35;6.03;;;2.65;;
75435;SDS011;64014;53.432;14.534;2023-04-24T09:55:01;3.50;;;1.70;;
75435;SDS011;64014;53.432;14.534;2023-04-24T09:57:28;4.18;;;2.08;;
75435;SDS011;64014;53.432;14.534;2023-04-24T09:59:54;4.82;;;4.00;;
75435;SDS011;64014;53.432;14.534;2023-04-24T10:02:20;3.58;;;2.22;;
75435;SDS011;64014;53.432;14.534;2023-04-24T10:04:56;3.92;;;2.20;;
75435;SDS011;64014;53.432;14.534;2023-04-24T10:07:25;5.60;;;3.25;;
75435;SDS011;64014;53.432;14.534;2023-04-24T10:09:52;3.97;;;2.90;;
75435;SDS011;64014;53.432;14.534;2023-04-24T10:12:18;2.67;;;1.75;;
75435;SDS011;64014;53.432;14.534;2023-04-24T10:14:45;3.70;;;2.97;;
75435;SDS011;64014;53.432;14.534;2023-04-24T10:17:12;3.42;;;1.83;;
75435;SDS011;64014;53.432;14.534;2023-04-24T10:19:38;3.67;;;2.40;;
75435;SDS011;64014;53.432;14.534;2023-04-24T10:22:06;3.75;;;2.38;;
75435;SDS011;64014;53.432;14.534;2023-04-24T10:24:33;5.22;;;2.53;;
75435;SDS011;64014;53.432;14.534;2023-04-24T10:27:02;5.30;;;2.83;;
75435;SDS011;64014;53.432;14.534;2023-04-24T10:29:29;5.35;;;2.90;;
75435;SDS011;64014;53.432;14.534;2023-04-24T10:31:57;4.35;;;2.90;;
75435;SDS011;64014;53.432;14.534;2023-04-24T10:34:23;5.78;;;2.72;;
75435;SDS011;64014;53.432;14.534;2023-04-24T10:36:53;5.57;;;2.50;;
75435;SDS011;64014;53.432;14.534;2023-04-24T10:39:20;5.00;;;2.13;;
75435;SDS011;64014;53.432;14.534;2023-04-24T10:41:48;3.83;;;1.70;;
75435;SDS011;64014;53.432;14.534;2023-04-24T10:44:15;3.17;;;2.03;;
75435;SDS011;64014;53.432;14.534;2023-04-24T10:46:45;5.95;;;2.38;;
75435;SDS011;64014;53.432;14.534;2023-04-24T10:49:13;4.47;;;2.05;;
75435;SDS011;64014;53.432;14.534;2023-04-24T10:51:46;5.13;;;2.15;;
75435;SDS011;64014;53.432;14.534;2023-04-24T10:54:23;4.68;;;2.53;;
75435;SDS011;64014;53.432;14.534;2023-04-24T10:56:52;3.53;;;2.08;;
75435;SDS011;64014;53.432;14.534;2023-04-24T10:59:25;4.47;;;4.07;;
75435;SDS011;64014;53.432;14.534;2023-04-24T11:01:52;2.80;;;1.35;;
75435;SDS011;64014;53.432;14.534;2023-04-24T11:04:28;6.78;;;2.67;;
75435;SDS011;64014;53.432;14.534;2023-04-24T11:06:55;3.75;;;2.13;;
75435;SDS011;64014;53.432;14.534;2023-04-24T11:09:21;3.85;;;2.30;;
75435;SDS011;64014;53.432;14.534;2023-04-24T11:11:47;3.75;;;2.03;;
75435;SDS011;64014;53.432;14.534;2023-04-24T11:14:16;3.45;;;2.08;;
75435;SDS011;64014;53.432;14.534;2023-04-24T11:21:43;3.47;;;1.40;;
75435;SDS011;64014;53.432;14.534;2023-04-24T11:26:48;4.00;;;1.35;;
75435;SDS011;64014;53.432;14.534;2023-04-24T11:29:14;3.08;;;2.78;;
75435;SDS011;64014;53.432;14.534;2023-04-24T11:31:40;4.32;;;2.83;;
75435;SDS011;64014;53.432;14.534;2023-04-24T11:34:11;3.63;;;1.42;;
75435;SDS011;64014;53.432;14.534;2023-04-24T11:36:38;3.42;;;2.50;;
75435;SDS011;64014;53.432;14.534;2023-04-24T11:39:04;4.63;;;1.38;;
75435;SDS011;64014;53.432;14.534;2023-04-24T11:41:31;4.47;;;1.40;;
75435;SDS011;64014;53.432;14.534;2023-04-24T11:43:57;3.58;;;1.88;;
75435;SDS011;64014;53.432;14.534;2023-04-24T11:46:26;2.78;;;2.38;;
75435;SDS011;64014;53.432;14.534;2023-04-24T11:48:53;3.03;;;1.10;;
75435;SDS011;64014;53.432;14.534;2023-04-24T11:51:19;3.25;;;1.00;;
75435;SDS011;64014;53.432;14.534;2023-04-24T11:53:45;3.63;;;1.13;;
75435;SDS011;64014;53.432;14.534;2023-04-24T11:56:12;3.80;;;2.10;;
75435;SDS011;64014;53.432;14.534;2023-04-24T11:58:38;6.72;;;0.88;;
75435;SDS011;64014;53.432;14.534;2023-04-24T12:01:04;2.75;;;1.77;;
75435;SDS011;64014;53.432;14.534;2023-04-24T12:03:31;2.60;;;0.65;;
75435;SDS011;64014;53.432;14.534;2023-04-24T12:06:10;2.40;;;1.25;;
75435;SDS011;64014;53.432;14.534;2023-04-24T12:08:37;3.92;;;0.82;;
75435;SDS011;64014;53.432;14.534;2023-04-24T12:11:04;3.67;;;2.15;;
75435;SDS011;64014;53.432;14.534;2023-04-24T12:13:32;4.18;;;1.05;;
75435;SDS011;64014;53.432;14.534;2023-04-24T12:15:58;1.70;;;0.52;;
75435;SDS011;64014;53.432;14.534;2023-04-24T12:18:24;3.00;;;2.10;;
75435;SDS011;64014;53.432;14.534;2023-04-24T12:20:50;5.97;;;0.45;;
75435;SDS011;64014;53.432;14.534;2023-04-24T12:23:16;2.58;;;2.05;;
75435;SDS011;64014;53.432;14.534;2023-04-24T12:25:59;3.40;;;0.57;;
75435;SDS011;64014;53.432;14.534;2023-04-24T12:28:34;2.22;;;0.70;;
75435;SDS011;64014;53.432;14.534;2023-04-24T12:31:00;1.45;;;0.40;;
75435;SDS011;64014;53.432;14.534;2023-04-24T12:33:26;6.30;;;0.60;;
75435;SDS011;64014;53.432;14.534;2023-04-24T12:35:54;2.47;;;0.63;;
75435;SDS011;64014;53.432;14.534;2023-04-24T12:38:25;1.25;;;0.50;;
75435;SDS011;64014;53.432;14.534;2023-04-24T12:41:04;1.77;;;0.40;;
75435;SDS011;64014;53.432;14.534;2023-04-24T12:43:30;3.08;;;0.88;;
75435;SDS011;64014;53.432;14.534;2023-04-24T12:45:57;3.70;;;0.88;;
75435;SDS011;64014;53.432;14.534;2023-04-24T12:48:24;1.92;;;0.50;;
75435;SDS011;64014;53.432;14.534;2023-04-24T12:50:50;2.78;;;0.77;;
75435;SDS011;64014;53.432;14.534;2023-04-24T12:53:17;2.25;;;0.82;;
75435;SDS011;64014;53.432;14.534;2023-04-24T12:55:43;1.35;;;0.63;;
75435;SDS011;64014;53.432;14.534;2023-04-24T12:58:10;2.88;;;0.75;;
75435;SDS011;64014;53.432;14.534;2023-04-24T13:00:36;2.05;;;0.60;;
75435;SDS011;64014;53.432;14.534;2023-04-24T13:03:02;2.55;;;0.70;;
75435;SDS011;64014;53.432;14.534;2023-04-24T13:05:29;3.42;;;0.70;;
75435;SDS011;64014;53.432;14.534;2023-04-24T13:07:55;2.72;;;2.28;;
75435;SDS011;64014;53.432;14.534;2023-04-24T13:10:21;1.90;;;0.55;;
75435;SDS011;64014;53.432;14.534;2023-04-24T13:12:47;3.35;;;0.68;;
75435;SDS011;64014;53.432;14.534;2023-04-24T13:15:13;3.53;;;2.10;;
75435;SDS011;64014;53.432;14.534;2023-04-24T13:17:40;1.55;;;0.52;;
75435;SDS011;64014;53.432;14.534;2023-04-24T13:20:06;1.80;;;0.47;;
75435;SDS011;64014;53.432;14.534;2023-04-24T13:22:32;2.92;;;1.65;;
75435;SDS011;64014;53.432;14.534;2023-04-24T13:24:59;1.77;;;1.58;;
75435;SDS011;64014;53.432;14.534;2023-04-24T13:27:26;1.50;;;0.30;;
75435;SDS011;64014;53.432;14.534;2023-04-24T13:29:52;2.22;;;1.63;;
75435;SDS011;64014;53.432;14.534;2023-04-24T13:32:18;2.78;;;0.88;;
75435;SDS011;64014;53.432;14.534;2023-04-24T13:34:44;1.73;;;0.70;;
75435;SDS011;64014;53.432;14.534;2023-04-24T13:37:10;3.08;;;1.70;;
75435;SDS011;64014;53.432;14.534;2023-04-24T13:39:37;2.08;;;1.52;;
75435;SDS011;64014;53.432;14.534;2023-04-24T13:42:03;3.05;;;1.80;;
75435;SDS011;64014;53.432;14.534;2023-04-24T13:44:29;2.25;;;0.70;;
75435;SDS011;64014;53.432;14.534;2023-04-24T13:46:55;1.80;;;1.58;;
75435;SDS011;64014;53.432;14.534;2023-04-24T13:49:22;1.58;;;0.73;;
75435;SDS011;64014;53.432;14.534;2023-04-24T13:51:52;2.10;;;0.30;;
75435;SDS011;64014;53.432;14.534;2023-04-24T13:54:19;2.00;;;0.90;;
75435;SDS011;64014;53.432;14.534;2023-04-24T13:56:45;1.08;;;0.38;;
75435;SDS011;64014;53.432;14.534;2023-04-24T13:59:12;5.07;;;1.88;;
75435;SDS011;64014;53.432;14.534;2023-04-24T14:01:38;2.50;;;0.40;;
75435;SDS011;64014;53.432;14.534;2023-04-24T14:04:04;1.23;;;0.32;;
75435;SDS011;64014;53.432;14.534;2023-04-24T14:06:30;2.58;;;2.20;;
75435;SDS011;64014;53.432;14.534;2023-04-24T14:08:57;2.40;;;0.50;;
75435;SDS011;64014;53.432;14.534;2023-04-24T14:11:23;1.83;;;1.45;;
75435;SDS011;64014;53.432;14.534;2023-04-24T14:13:49;1.13;;;0.40;;
75435;SDS011;64014;53.432;14.534;2023-04-24T14:16:15;1.52;;;0.32;;
75435;SDS011;64014;53.432;14.534;2023-04-24T14:18:41;1.23;;;0.43;;
75435;SDS011;64014;53.432;14.534;2023-04-24T14:21:08;1.27;;;0.60;;
75435;SDS011;64014;53.432;14.534;2023-04-24T14:23:34;3.53;;;1.45;;
75435;SDS011;64014;53.432;14.534;2023-04-24T14:26:00;2.75;;;0.70;;
75435;SDS011;64014;53.432;14.534;2023-04-24T14:28:26;12.98;;;0.73;;